sensor_id;sensor_type;location;lat;lon;timestamp;P1;durP1;ratioP1;P2;durP2;ratioP2
75772;SDS011;64381;0.000;0.000;2022-12-19T00:00:15;9.43;;;5.33;;
75772;SDS011;64381;0.000;0.000;2022-12-19T00:02:40;9.30;;;5.40;;
75772;SDS011;64381;0.000;0.000;2022-12-19T00:05:06;10.07;;;5.90;;
75772;SDS011;64381;0.000;0.000;2022-12-19T00:07:31;8.68;;;5.20;;
75772;SDS011;64381;0.000;0.000;2022-12-19T00:09:56;9.07;;;5.37;;
75772;SDS011;64381;0.000;0.000;2022-12-19T00:12:22;10.17;;;5.83;;
75772;SDS011;64381;0.000;0.000;2022-12-19T00:14:47;9.87;;;5.97;;
75772;SDS011;64381;0.000;0.000;2022-12-19T00:17:12;8.93;;;5.53;;
75772;SDS011;64381;0.000;0.000;2022-12-19T00:19:37;9.73;;;5.50;;
75772;SDS011;64381;0.000;0.000;2022-12-19T00:22:03;9.60;;;5.50;;
75772;SDS011;64381;0.000;0.000;2022-12-19T00:24:28;9.10;;;5.33;;
75772;SDS011;64381;0.000;0.000;2022-12-19T00:26:53;8.47;;;5.33;;
75772;SDS011;64381;0.000;0.000;2022-12-19T00:29:18;9.90;;;5.50;;
75772;SDS011;64381;0.000;0.000;2022-12-19T00:31:43;9.70;;;5.40;;
75772;SDS011;64381;0.000;0.000;2022-12-19T00:34:09;9.17;;;5.57;;
75772;SDS011;64381;0.000;0.000;2022-12-19T00:36:34;8.90;;;5.20;;
75772;SDS011;64381;0.000;0.000;2022-12-19T00:39:00;8.77;;;5.30;;
75772;SDS011;64381;0.000;0.000;2022-12-19T00:41:28;9.20;;;5.18;;
75772;SDS011;64381;0.000;0.000;2022-12-19T00:44:02;9.50;;;5.07;;
75772;SDS011;64381;0.000;0.000;2022-12-19T00:46:29;8.82;;;5.43;;
75772;SDS011;64381;0.000;0.000;2022-12-19T00:48:55;9.82;;;5.68;;
75772;SDS011;64381;0.000;0.000;2022-12-19T00:51:22;9.10;;;5.10;;
75772;SDS011;64381;0.000;0.000;2022-12-19T00:53:53;9.63;;;5.50;;
75772;SDS011;64381;0.000;0.000;2022-12-19T00:56:22;9.18;;;5.32;;
75772;SDS011;64381;0.000;0.000;2022-12-19T00:58:49;8.55;;;5.10;;
75772;SDS011;64381;0.000;0.000;2022-12-19T01:01:16;9.17;;;5.47;;
75772;SDS011;64381;0.000;0.000;2022-12-19T01:03:44;9.15;;;5.38;;
75772;SDS011;64381;0.000;0.000;2022-12-19T01:06:11;8.45;;;4.78;;
75772;SDS011;64381;0.000;0.000;2022-12-19T01:08:36;9.23;;;5.20;;
75772;SDS011;64381;0.000;0.000;2022-12-19T01:11:02;8.83;;;5.20;;
75772;SDS011;64381;0.000;0.000;2022-12-19T01:13:28;9.82;;;5.45;;
75772;SDS011;64381;0.000;0.000;2022-12-19T01:15:55;8.98;;;5.65;;
75772;SDS011;64381;0.000;0.000;2022-12-19T01:18:20;9.47;;;5.30;;
75772;SDS011;64381;0.000;0.000;2022-12-19T01:20:46;9.93;;;5.65;;
75772;SDS011;64381;0.000;0.000;2022-12-19T01:23:12;8.87;;;5.13;;
75772;SDS011;64381;0.000;0.000;2022-12-19T01:25:39;9.07;;;5.80;;
75772;SDS011;64381;0.000;0.000;2022-12-19T01:28:05;9.50;;;5.50;;
75772;SDS011;64381;0.000;0.000;2022-12-19T01:30:31;9.40;;;5.35;;
75772;SDS011;64381;0.000;0.000;2022-12-19T01:32:58;8.68;;;5.18;;
75772;SDS011;64381;0.000;0.000;2022-12-19T01:35:24;8.27;;;4.90;;
75772;SDS011;64381;0.000;0.000;2022-12-19T01:37:50;10.30;;;5.80;;
75772;SDS011;64381;0.000;0.000;2022-12-19T01:40:16;8.93;;;5.30;;
75772;SDS011;64381;0.000;0.000;2022-12-19T01:42:42;8.18;;;5.07;;
75772;SDS011;64381;0.000;0.000;2022-12-19T01:47:46;9.15;;;5.13;;
75772;SDS011;64381;0.000;0.000;2022-12-19T01:50:13;9.10;;;5.43;;
75772;SDS011;64381;0.000;0.000;2022-12-19T01:52:41;9.30;;;5.30;;
75772;SDS011;64381;0.000;0.000;2022-12-19T01:55:07;8.52;;;5.07;;
75772;SDS011;64381;0.000;0.000;2022-12-19T01:57:33;9.40;;;5.20;;
75772;SDS011;64381;0.000;0.000;2022-12-19T01:59:59;8.77;;;5.53;;
75772;SDS011;64381;0.000;0.000;2022-12-19T02:02:44;10.20;;;5.00;;
75772;SDS011;64381;0.000;0.000;2022-12-19T02:05:14;8.87;;;5.03;;
75772;SDS011;64381;0.000;0.000;2022-12-19T02:07:39;7.83;;;5.10;;
75772;SDS011;64381;0.000;0.000;2022-12-19T02:10:05;7.88;;;5.10;;
75772;SDS011;64381;0.000;0.000;2022-12-19T02:12:32;8.13;;;5.00;;
75772;SDS011;64381;0.000;0.000;2022-12-19T02:15:00;9.30;;;4.95;;
75772;SDS011;64381;0.000;0.000;2022-12-19T02:33:15;8.10;;;4.97;;
75772;SDS011;64381;0.000;0.000;2022-12-19T02:35:50;7.60;;;4.63;;
75772;SDS011;64381;0.000;0.000;2022-12-19T02:40:59;9.17;;;5.30;;
75772;SDS011;64381;0.000;0.000;2022-12-19T02:43:29;8.48;;;4.85;;
75772;SDS011;64381;0.000;0.000;2022-12-19T02:45:58;9.13;;;5.32;;
75772;SDS011;64381;0.000;0.000;2022-12-19T02:48:26;8.88;;;5.00;;
75772;SDS011;64381;0.000;0.000;2022-12-19T02:50:53;8.85;;;4.95;;
75772;SDS011;64381;0.000;0.000;2022-12-19T02:53:18;8.37;;;4.60;;
75772;SDS011;64381;0.000;0.000;2022-12-19T02:55:48;8.33;;;4.40;;
75772;SDS011;64381;0.000;0.000;2022-12-19T02:58:31;8.73;;;5.03;;
75772;SDS011;64381;0.000;0.000;2022-12-19T03:01:13;9.00;;;5.00;;
75772;SDS011;64381;0.000;0.000;2022-12-19T03:03:53;8.38;;;4.93;;
75772;SDS011;64381;0.000;0.000;2022-12-19T03:06:39;8.20;;;4.80;;
75772;SDS011;64381;0.000;0.000;2022-12-19T03:09:14;8.70;;;5.20;;
75772;SDS011;64381;0.000;0.000;2022-12-19T03:11:41;8.68;;;5.03;;
75772;SDS011;64381;0.000;0.000;2022-12-19T03:14:09;8.83;;;5.33;;
75772;SDS011;64381;0.000;0.000;2022-12-19T03:16:38;7.72;;;4.80;;
75772;SDS011;64381;0.000;0.000;2022-12-19T03:19:04;8.60;;;4.90;;
75772;SDS011;64381;0.000;0.000;2022-12-19T03:21:43;7.95;;;4.60;;
75772;SDS011;64381;0.000;0.000;2022-12-19T03:24:11;8.43;;;4.70;;
75772;SDS011;64381;0.000;0.000;2022-12-19T03:26:41;9.45;;;4.88;;
75772;SDS011;64381;0.000;0.000;2022-12-19T03:29:16;8.97;;;5.10;;
75772;SDS011;64381;0.000;0.000;2022-12-19T03:31:46;8.15;;;5.15;;
75772;SDS011;64381;0.000;0.000;2022-12-19T03:34:25;8.13;;;4.80;;
75772;SDS011;64381;0.000;0.000;2022-12-19T03:36:54;7.60;;;4.67;;
75772;SDS011;64381;0.000;0.000;2022-12-19T03:39:24;8.25;;;4.80;;
75772;SDS011;64381;0.000;0.000;2022-12-19T03:41:50;8.35;;;5.10;;
75772;SDS011;64381;0.000;0.000;2022-12-19T03:44:17;8.32;;;4.88;;
75772;SDS011;64381;0.000;0.000;2022-12-19T03:46:48;8.10;;;4.97;;
75772;SDS011;64381;0.000;0.000;2022-12-19T03:49:18;7.37;;;4.67;;
75772;SDS011;64381;0.000;0.000;2022-12-19T03:54:26;8.30;;;4.68;;
75772;SDS011;64381;0.000;0.000;2022-12-19T03:59:42;7.40;;;4.70;;
75772;SDS011;64381;0.000;0.000;2022-12-19T04:02:19;8.27;;;4.70;;
75772;SDS011;64381;0.000;0.000;2022-12-19T04:04:55;9.63;;;4.97;;
75772;SDS011;64381;0.000;0.000;2022-12-19T04:07:24;8.45;;;4.88;;
75772;SDS011;64381;0.000;0.000;2022-12-19T04:09:50;7.50;;;4.78;;
75772;SDS011;64381;0.000;0.000;2022-12-19T04:12:18;9.00;;;4.95;;
75772;SDS011;64381;0.000;0.000;2022-12-19T04:14:46;8.52;;;4.70;;
75772;SDS011;64381;0.000;0.000;2022-12-19T04:20:04;7.85;;;4.65;;
75772;SDS011;64381;0.000;0.000;2022-12-19T04:22:39;8.90;;;4.97;;
75772;SDS011;64381;0.000;0.000;2022-12-19T04:25:09;7.72;;;4.50;;
75772;SDS011;64381;0.000;0.000;2022-12-19T04:27:38;7.63;;;4.70;;
75772;SDS011;64381;0.000;0.000;2022-12-19T04:30:07;8.67;;;4.57;;
75772;SDS011;64381;0.000;0.000;2022-12-19T04:32:33;7.47;;;4.60;;
75772;SDS011;64381;0.000;0.000;2022-12-19T04:35:00;8.63;;;4.90;;
75772;SDS011;64381;0.000;0.000;2022-12-19T04:37:26;8.30;;;4.80;;
75772;SDS011;64381;0.000;0.000;2022-12-19T04:39:52;7.93;;;4.70;;
75772;SDS011;64381;0.000;0.000;2022-12-19T04:42:17;7.67;;;4.60;;
75772;SDS011;64381;0.000;0.000;2022-12-19T04:44:43;7.33;;;4.57;;
75772;SDS011;64381;0.000;0.000;2022-12-19T04:47:08;9.23;;;5.17;;
75772;SDS011;64381;0.000;0.000;2022-12-19T04:49:33;8.73;;;4.77;;
75772;SDS011;64381;0.000;0.000;2022-12-19T04:51:58;7.77;;;4.70;;
75772;SDS011;64381;0.000;0.000;2022-12-19T04:54:24;8.37;;;4.40;;
75772;SDS011;64381;0.000;0.000;2022-12-19T04:56:49;8.87;;;4.57;;
75772;SDS011;64381;0.000;0.000;2022-12-19T04:59:14;7.37;;;4.37;;
75772;SDS011;64381;0.000;0.000;2022-12-19T05:01:39;8.70;;;4.77;;
75772;SDS011;64381;0.000;0.000;2022-12-19T05:04:04;8.27;;;4.90;;
75772;SDS011;64381;0.000;0.000;2022-12-19T05:06:30;8.90;;;5.00;;
75772;SDS011;64381;0.000;0.000;2022-12-19T05:08:56;7.73;;;4.63;;
75772;SDS011;64381;0.000;0.000;2022-12-19T05:11:21;8.53;;;4.73;;
75772;SDS011;64381;0.000;0.000;2022-12-19T05:13:46;7.77;;;4.77;;
75772;SDS011;64381;0.000;0.000;2022-12-19T05:16:12;8.10;;;4.68;;
75772;SDS011;64381;0.000;0.000;2022-12-19T05:18:38;7.70;;;4.60;;
75772;SDS011;64381;0.000;0.000;2022-12-19T05:21:03;7.75;;;4.80;;
75772;SDS011;64381;0.000;0.000;2022-12-19T05:23:29;8.70;;;4.73;;
75772;SDS011;64381;0.000;0.000;2022-12-19T05:26:00;7.47;;;4.57;;
75772;SDS011;64381;0.000;0.000;2022-12-19T05:28:26;9.25;;;5.00;;
75772;SDS011;64381;0.000;0.000;2022-12-19T05:31:00;9.03;;;5.00;;
75772;SDS011;64381;0.000;0.000;2022-12-19T05:33:28;8.18;;;4.72;;
75772;SDS011;64381;0.000;0.000;2022-12-19T05:35:53;8.93;;;4.67;;
75772;SDS011;64381;0.000;0.000;2022-12-19T05:38:19;7.53;;;4.73;;
75772;SDS011;64381;0.000;0.000;2022-12-19T05:40:44;8.40;;;4.33;;
75772;SDS011;64381;0.000;0.000;2022-12-19T05:43:09;8.93;;;4.70;;
75772;SDS011;64381;0.000;0.000;2022-12-19T05:45:34;8.27;;;4.73;;
75772;SDS011;64381;0.000;0.000;2022-12-19T05:48:00;7.87;;;4.70;;
75772;SDS011;64381;0.000;0.000;2022-12-19T05:50:25;7.10;;;4.27;;
75772;SDS011;64381;0.000;0.000;2022-12-19T05:52:50;8.93;;;4.73;;
75772;SDS011;64381;0.000;0.000;2022-12-19T05:55:15;8.20;;;4.40;;
75772;SDS011;64381;0.000;0.000;2022-12-19T05:57:41;8.00;;;4.30;;
75772;SDS011;64381;0.000;0.000;2022-12-19T06:00:06;8.73;;;4.63;;
75772;SDS011;64381;0.000;0.000;2022-12-19T06:02:32;7.47;;;4.40;;
75772;SDS011;64381;0.000;0.000;2022-12-19T06:04:57;7.43;;;4.45;;
75772;SDS011;64381;0.000;0.000;2022-12-19T06:07:23;8.43;;;4.80;;
75772;SDS011;64381;0.000;0.000;2022-12-19T06:09:48;8.60;;;5.13;;
75772;SDS011;64381;0.000;0.000;2022-12-19T06:12:13;8.07;;;4.73;;
75772;SDS011;64381;0.000;0.000;2022-12-19T06:14:38;8.73;;;4.73;;
75772;SDS011;64381;0.000;0.000;2022-12-19T06:17:04;7.60;;;4.47;;
75772;SDS011;64381;0.000;0.000;2022-12-19T06:19:29;8.70;;;4.70;;
75772;SDS011;64381;0.000;0.000;2022-12-19T06:21:54;8.40;;;4.87;;
75772;SDS011;64381;0.000;0.000;2022-12-19T06:24:19;7.80;;;4.67;;
75772;SDS011;64381;0.000;0.000;2022-12-19T06:26:44;8.20;;;4.63;;
75772;SDS011;64381;0.000;0.000;2022-12-19T06:29:10;7.73;;;4.57;;
75772;SDS011;64381;0.000;0.000;2022-12-19T06:31:35;8.07;;;4.57;;
75772;SDS011;64381;0.000;0.000;2022-12-19T06:34:00;7.20;;;4.50;;
75772;SDS011;64381;0.000;0.000;2022-12-19T06:36:26;8.17;;;4.63;;
75772;SDS011;64381;0.000;0.000;2022-12-19T06:38:53;7.68;;;4.53;;
75772;SDS011;64381;0.000;0.000;2022-12-19T06:41:20;7.63;;;4.63;;
75772;SDS011;64381;0.000;0.000;2022-12-19T06:43:45;7.93;;;4.63;;
75772;SDS011;64381;0.000;0.000;2022-12-19T06:46:10;7.07;;;4.33;;
75772;SDS011;64381;0.000;0.000;2022-12-19T06:48:36;8.07;;;4.80;;
75772;SDS011;64381;0.000;0.000;2022-12-19T06:51:02;7.03;;;4.00;;
75772;SDS011;64381;0.000;0.000;2022-12-19T06:53:27;8.05;;;4.50;;
75772;SDS011;64381;0.000;0.000;2022-12-19T06:55:54;7.80;;;4.40;;
75772;SDS011;64381;0.000;0.000;2022-12-19T06:58:21;8.13;;;4.70;;
75772;SDS011;64381;0.000;0.000;2022-12-19T07:00:47;8.67;;;4.50;;
75772;SDS011;64381;0.000;0.000;2022-12-19T07:03:13;7.60;;;4.60;;
75772;SDS011;64381;0.000;0.000;2022-12-19T07:05:41;8.07;;;4.47;;
75772;SDS011;64381;0.000;0.000;2022-12-19T07:08:07;7.80;;;4.50;;
75772;SDS011;64381;0.000;0.000;2022-12-19T07:10:33;7.95;;;4.68;;
75772;SDS011;64381;0.000;0.000;2022-12-19T07:12:58;8.57;;;4.77;;
75772;SDS011;64381;0.000;0.000;2022-12-19T07:15:23;8.07;;;4.60;;
75772;SDS011;64381;0.000;0.000;2022-12-19T07:17:49;7.80;;;4.37;;
75772;SDS011;64381;0.000;0.000;2022-12-19T07:20:15;7.33;;;4.13;;
75772;SDS011;64381;0.000;0.000;2022-12-19T07:22:41;7.60;;;4.40;;
75772;SDS011;64381;0.000;0.000;2022-12-19T07:25:07;7.53;;;4.38;;
75772;SDS011;64381;0.000;0.000;2022-12-19T07:27:33;7.53;;;4.55;;
75772;SDS011;64381;0.000;0.000;2022-12-19T07:29:59;7.77;;;4.90;;
75772;SDS011;64381;0.000;0.000;2022-12-19T07:32:24;8.57;;;4.83;;
75772;SDS011;64381;0.000;0.000;2022-12-19T07:34:49;7.07;;;3.80;;
75772;SDS011;64381;0.000;0.000;2022-12-19T07:37:14;8.20;;;4.57;;
75772;SDS011;64381;0.000;0.000;2022-12-19T07:39:40;8.10;;;4.60;;
75772;SDS011;64381;0.000;0.000;2022-12-19T07:42:05;7.87;;;4.17;;
75772;SDS011;64381;0.000;0.000;2022-12-19T07:44:30;7.67;;;4.70;;
75772;SDS011;64381;0.000;0.000;2022-12-19T07:46:55;8.30;;;4.60;;
75772;SDS011;64381;0.000;0.000;2022-12-19T07:49:20;8.97;;;4.73;;
75772;SDS011;64381;0.000;0.000;2022-12-19T07:51:46;8.73;;;5.00;;
75772;SDS011;64381;0.000;0.000;2022-12-19T07:54:11;8.20;;;4.37;;
75772;SDS011;64381;0.000;0.000;2022-12-19T07:56:36;7.63;;;4.07;;
75772;SDS011;64381;0.000;0.000;2022-12-19T07:59:01;7.63;;;4.73;;
75772;SDS011;64381;0.000;0.000;2022-12-19T08:01:27;7.75;;;4.50;;
75772;SDS011;64381;0.000;0.000;2022-12-19T08:03:52;7.70;;;4.30;;
75772;SDS011;64381;0.000;0.000;2022-12-19T08:06:18;7.63;;;4.33;;
75772;SDS011;64381;0.000;0.000;2022-12-19T08:08:43;8.03;;;4.57;;
75772;SDS011;64381;0.000;0.000;2022-12-19T08:11:09;8.20;;;4.40;;
75772;SDS011;64381;0.000;0.000;2022-12-19T08:13:39;7.70;;;4.38;;
75772;SDS011;64381;0.000;0.000;2022-12-19T08:16:04;8.43;;;4.47;;
75772;SDS011;64381;0.000;0.000;2022-12-19T08:18:30;8.47;;;4.80;;
75772;SDS011;64381;0.000;0.000;2022-12-19T08:20:55;8.63;;;4.30;;
75772;SDS011;64381;0.000;0.000;2022-12-19T08:23:21;7.77;;;4.77;;
75772;SDS011;64381;0.000;0.000;2022-12-19T08:25:46;8.00;;;4.40;;
75772;SDS011;64381;0.000;0.000;2022-12-19T08:28:11;6.47;;;3.97;;
75772;SDS011;64381;0.000;0.000;2022-12-19T08:30:37;8.07;;;4.50;;
75772;SDS011;64381;0.000;0.000;2022-12-19T08:33:03;7.50;;;4.40;;
75772;SDS011;64381;0.000;0.000;2022-12-19T08:35:29;8.73;;;4.60;;
75772;SDS011;64381;0.000;0.000;2022-12-19T08:37:54;7.80;;;4.73;;
75772;SDS011;64381;0.000;0.000;2022-12-19T08:40:19;10.87;;;4.57;;
75772;SDS011;64381;0.000;0.000;2022-12-19T08:42:44;8.47;;;4.20;;
75772;SDS011;64381;0.000;0.000;2022-12-19T08:45:10;9.23;;;4.57;;
75772;SDS011;64381;0.000;0.000;2022-12-19T08:47:35;8.43;;;4.63;;
75772;SDS011;64381;0.000;0.000;2022-12-19T08:50:00;7.67;;;4.10;;
75772;SDS011;64381;0.000;0.000;2022-12-19T08:52:25;8.53;;;4.50;;
75772;SDS011;64381;0.000;0.000;2022-12-19T08:54:51;8.47;;;4.50;;
75772;SDS011;64381;0.000;0.000;2022-12-19T08:57:16;9.10;;;4.63;;
75772;SDS011;64381;0.000;0.000;2022-12-19T08:59:41;7.53;;;4.30;;
75772;SDS011;64381;0.000;0.000;2022-12-19T09:02:07;8.40;;;4.20;;
75772;SDS011;64381;0.000;0.000;2022-12-19T09:04:33;8.38;;;4.63;;
75772;SDS011;64381;0.000;0.000;2022-12-19T09:06:58;7.33;;;4.43;;
75772;SDS011;64381;0.000;0.000;2022-12-19T09:09:24;7.43;;;4.17;;
75772;SDS011;64381;0.000;0.000;2022-12-19T09:11:49;7.27;;;4.27;;
75772;SDS011;64381;0.000;0.000;2022-12-19T09:14:14;7.27;;;4.27;;
75772;SDS011;64381;0.000;0.000;2022-12-19T09:16:39;8.27;;;4.27;;
75772;SDS011;64381;0.000;0.000;2022-12-19T09:19:04;7.00;;;4.20;;
75772;SDS011;64381;0.000;0.000;2022-12-19T09:21:30;7.23;;;4.33;;
75772;SDS011;64381;0.000;0.000;2022-12-19T09:23:56;8.07;;;4.43;;
75772;SDS011;64381;0.000;0.000;2022-12-19T09:26:23;8.93;;;4.97;;
75772;SDS011;64381;0.000;0.000;2022-12-19T09:28:49;7.90;;;4.40;;
75772;SDS011;64381;0.000;0.000;2022-12-19T09:31:16;8.75;;;4.70;;
75772;SDS011;64381;0.000;0.000;2022-12-19T09:33:47;10.07;;;4.40;;
75772;SDS011;64381;0.000;0.000;2022-12-19T09:36:19;7.77;;;4.43;;
75772;SDS011;64381;0.000;0.000;2022-12-19T09:38:46;10.73;;;4.30;;
75772;SDS011;64381;0.000;0.000;2022-12-19T09:44:10;7.32;;;4.40;;
75772;SDS011;64381;0.000;0.000;2022-12-19T09:46:51;9.17;;;4.43;;
75772;SDS011;64381;0.000;0.000;2022-12-19T09:49:24;7.38;;;4.00;;
75772;SDS011;64381;0.000;0.000;2022-12-19T09:51:59;7.13;;;4.20;;
75772;SDS011;64381;0.000;0.000;2022-12-19T09:57:10;8.63;;;3.83;;
75772;SDS011;64381;0.000;0.000;2022-12-19T09:59:40;7.97;;;4.07;;
75772;SDS011;64381;0.000;0.000;2022-12-19T10:07:54;9.25;;;4.20;;
75772;SDS011;64381;0.000;0.000;2022-12-19T10:10:40;7.40;;;4.00;;
75772;SDS011;64381;0.000;0.000;2022-12-19T10:13:35;7.55;;;4.03;;
75772;SDS011;64381;0.000;0.000;2022-12-19T10:19:14;6.63;;;3.80;;
75772;SDS011;64381;0.000;0.000;2022-12-19T10:21:56;6.65;;;3.80;;
75772;SDS011;64381;0.000;0.000;2022-12-19T10:29:47;8.10;;;4.10;;
75772;SDS011;64381;0.000;0.000;2022-12-19T10:35:20;7.63;;;4.15;;
75772;SDS011;64381;0.000;0.000;2022-12-19T10:37:48;8.77;;;3.75;;
75772;SDS011;64381;0.000;0.000;2022-12-19T10:42:54;6.87;;;3.57;;
75772;SDS011;64381;0.000;0.000;2022-12-19T10:45:24;7.25;;;3.75;;
75772;SDS011;64381;0.000;0.000;2022-12-19T10:47:56;7.43;;;3.97;;
75772;SDS011;64381;0.000;0.000;2022-12-19T10:50:24;6.63;;;3.80;;
75772;SDS011;64381;0.000;0.000;2022-12-19T10:52:55;7.18;;;3.90;;
75772;SDS011;64381;0.000;0.000;2022-12-19T10:55:44;6.35;;;3.70;;
75772;SDS011;64381;0.000;0.000;2022-12-19T11:03:40;6.50;;;3.67;;
75772;SDS011;64381;0.000;0.000;2022-12-19T11:07:03;7.22;;;3.63;;
75772;SDS011;64381;0.000;0.000;2022-12-19T11:09:21;6.55;;;3.70;;
75772;SDS011;64381;0.000;0.000;2022-12-19T11:12:00;6.80;;;3.45;;
75772;SDS011;64381;0.000;0.000;2022-12-19T11:14:31;7.93;;;3.58;;
75772;SDS011;64381;0.000;0.000;2022-12-19T11:16:57;7.07;;;3.70;;
75772;SDS011;64381;0.000;0.000;2022-12-19T11:21:55;6.70;;;3.60;;
75772;SDS011;64381;0.000;0.000;2022-12-19T11:24:56;7.63;;;3.70;;
75772;SDS011;64381;0.000;0.000;2022-12-19T11:30:00;6.30;;;3.97;;
75772;SDS011;64381;0.000;0.000;2022-12-19T11:32:35;7.00;;;3.80;;
75772;SDS011;64381;0.000;0.000;2022-12-19T11:35:04;6.10;;;3.67;;
75772;SDS011;64381;0.000;0.000;2022-12-19T11:37:48;8.07;;;3.60;;
75772;SDS011;64381;0.000;0.000;2022-12-19T11:40:23;6.05;;;3.65;;
75772;SDS011;64381;0.000;0.000;2022-12-19T11:43:10;7.88;;;3.70;;
75772;SDS011;64381;0.000;0.000;2022-12-19T11:48:37;7.23;;;3.80;;
75772;SDS011;64381;0.000;0.000;2022-12-19T11:56:30;6.05;;;3.40;;
75772;SDS011;64381;0.000;0.000;2022-12-19T11:58:56;6.40;;;3.40;;
75772;SDS011;64381;0.000;0.000;2022-12-19T12:01:41;6.38;;;3.60;;
75772;SDS011;64381;0.000;0.000;2022-12-19T12:07:09;5.87;;;3.27;;
75772;SDS011;64381;0.000;0.000;2022-12-19T12:09:35;6.60;;;3.20;;
75772;SDS011;64381;0.000;0.000;2022-12-19T12:17:17;11.80;;;3.60;;
75772;SDS011;64381;0.000;0.000;2022-12-19T12:19:54;12.85;;;4.05;;
75772;SDS011;64381;0.000;0.000;2022-12-19T12:28:00;9.15;;;3.60;;
75772;SDS011;64381;0.000;0.000;2022-12-19T12:33:30;11.48;;;3.70;;
75772;SDS011;64381;0.000;0.000;2022-12-19T12:36:15;9.63;;;3.70;;
75772;SDS011;64381;0.000;0.000;2022-12-19T12:38:55;9.43;;;3.58;;
75772;SDS011;64381;0.000;0.000;2022-12-19T12:44:38;15.88;;;3.88;;
75772;SDS011;64381;0.000;0.000;2022-12-19T12:49:53;8.47;;;3.33;;
75772;SDS011;64381;0.000;0.000;2022-12-19T12:52:28;10.45;;;3.53;;
75772;SDS011;64381;0.000;0.000;2022-12-19T12:54:57;10.75;;;4.15;;
75772;SDS011;64381;0.000;0.000;2022-12-19T13:08:00;9.18;;;3.60;;
75772;SDS011;64381;0.000;0.000;2022-12-19T13:10:53;8.55;;;3.55;;
75772;SDS011;64381;0.000;0.000;2022-12-19T13:13:20;8.38;;;3.35;;
75772;SDS011;64381;0.000;0.000;2022-12-19T13:19:17;7.88;;;3.45;;
75772;SDS011;64381;0.000;0.000;2022-12-19T13:24:28;7.53;;;3.42;;
75772;SDS011;64381;0.000;0.000;2022-12-19T13:29:55;7.83;;;3.53;;
75772;SDS011;64381;0.000;0.000;2022-12-19T13:35:02;6.43;;;3.40;;
75772;SDS011;64381;0.000;0.000;2022-12-19T13:43:12;8.27;;;3.50;;
75772;SDS011;64381;0.000;0.000;2022-12-19T13:45:46;8.63;;;3.35;;
75772;SDS011;64381;0.000;0.000;2022-12-19T13:48:15;7.70;;;3.42;;
75772;SDS011;64381;0.000;0.000;2022-12-19T13:50:48;7.85;;;3.63;;
75772;SDS011;64381;0.000;0.000;2022-12-19T13:53:19;8.48;;;3.60;;
75772;SDS011;64381;0.000;0.000;2022-12-19T13:55:47;8.33;;;3.10;;
75772;SDS011;64381;0.000;0.000;2022-12-19T13:58:19;7.45;;;3.22;;
75772;SDS011;64381;0.000;0.000;2022-12-19T14:00:48;9.07;;;3.60;;
75772;SDS011;64381;0.000;0.000;2022-12-19T14:03:17;6.65;;;3.45;;
75772;SDS011;64381;0.000;0.000;2022-12-19T14:05:46;7.37;;;3.40;;
75772;SDS011;64381;0.000;0.000;2022-12-19T14:08:16;8.07;;;3.35;;
75772;SDS011;64381;0.000;0.000;2022-12-19T14:10:45;6.67;;;3.03;;
75772;SDS011;64381;0.000;0.000;2022-12-19T14:13:16;8.35;;;3.53;;
75772;SDS011;64381;0.000;0.000;2022-12-19T14:15:46;8.00;;;3.63;;
75772;SDS011;64381;0.000;0.000;2022-12-19T14:18:25;10.20;;;4.25;;
75772;SDS011;64381;0.000;0.000;2022-12-19T14:23:35;10.47;;;5.10;;
75772;SDS011;64381;0.000;0.000;2022-12-19T14:26:01;11.53;;;4.90;;
75772;SDS011;64381;0.000;0.000;2022-12-19T14:28:28;11.40;;;4.97;;
75772;SDS011;64381;0.000;0.000;2022-12-19T14:31:02;10.77;;;4.80;;
75772;SDS011;64381;0.000;0.000;2022-12-19T14:34:03;16.73;;;5.93;;
75772;SDS011;64381;0.000;0.000;2022-12-19T14:36:22;11.50;;;5.53;;
75772;SDS011;64381;0.000;0.000;2022-12-19T14:38:50;12.70;;;6.35;;
75772;SDS011;64381;0.000;0.000;2022-12-19T14:41:59;14.67;;;6.33;;
75772;SDS011;64381;0.000;0.000;2022-12-19T14:44:08;14.00;;;6.45;;
75772;SDS011;64381;0.000;0.000;2022-12-19T14:46:33;14.33;;;6.43;;
75772;SDS011;64381;0.000;0.000;2022-12-19T14:48:59;14.47;;;6.00;;
75772;SDS011;64381;0.000;0.000;2022-12-19T14:51:33;13.00;;;5.70;;
75772;SDS011;64381;0.000;0.000;2022-12-19T14:59:17;18.27;;;8.02;;
75772;SDS011;64381;0.000;0.000;2022-12-19T15:02:00;20.45;;;9.95;;
75772;SDS011;64381;0.000;0.000;2022-12-19T15:04:45;17.77;;;8.25;;
75772;SDS011;64381;0.000;0.000;2022-12-19T15:07:18;15.48;;;8.23;;
75772;SDS011;64381;0.000;0.000;2022-12-19T15:09:52;19.27;;;8.97;;
75772;SDS011;64381;0.000;0.000;2022-12-19T15:12:27;18.83;;;9.20;;
75772;SDS011;64381;0.000;0.000;2022-12-19T15:15:00;20.02;;;9.23;;
75772;SDS011;64381;0.000;0.000;2022-12-19T15:17:32;17.40;;;8.15;;
75772;SDS011;64381;0.000;0.000;2022-12-19T15:20:09;17.83;;;8.38;;
75772;SDS011;64381;0.000;0.000;2022-12-19T15:22:34;16.20;;;8.70;;
75772;SDS011;64381;0.000;0.000;2022-12-19T15:24:59;17.27;;;8.53;;
75772;SDS011;64381;0.000;0.000;2022-12-19T15:27:25;16.47;;;8.10;;
75772;SDS011;64381;0.000;0.000;2022-12-19T15:29:50;19.83;;;7.93;;
75772;SDS011;64381;0.000;0.000;2022-12-19T15:32:15;16.65;;;7.88;;
75772;SDS011;64381;0.000;0.000;2022-12-19T15:34:41;14.63;;;7.53;;
75772;SDS011;64381;0.000;0.000;2022-12-19T15:37:08;16.87;;;8.23;;
75772;SDS011;64381;0.000;0.000;2022-12-19T15:39:35;15.50;;;7.55;;
75772;SDS011;64381;0.000;0.000;2022-12-19T15:42:00;15.43;;;7.73;;
75772;SDS011;64381;0.000;0.000;2022-12-19T15:44:30;16.25;;;8.00;;
75772;SDS011;64381;0.000;0.000;2022-12-19T15:46:57;18.98;;;8.05;;
75772;SDS011;64381;0.000;0.000;2022-12-19T15:49:23;15.57;;;6.90;;
75772;SDS011;64381;0.000;0.000;2022-12-19T15:51:49;14.20;;;7.20;;
75772;SDS011;64381;0.000;0.000;2022-12-19T15:54:14;13.38;;;6.72;;
75772;SDS011;64381;0.000;0.000;2022-12-19T15:56:41;13.47;;;6.90;;
75772;SDS011;64381;0.000;0.000;2022-12-19T15:59:19;16.60;;;6.93;;
75772;SDS011;64381;0.000;0.000;2022-12-19T16:01:48;15.38;;;7.57;;
75772;SDS011;64381;0.000;0.000;2022-12-19T16:04:14;20.27;;;7.20;;
75772;SDS011;64381;0.000;0.000;2022-12-19T16:06:39;13.60;;;6.43;;
75772;SDS011;64381;0.000;0.000;2022-12-19T16:09:11;18.23;;;6.50;;
75772;SDS011;64381;0.000;0.000;2022-12-19T16:11:42;15.35;;;6.60;;
75772;SDS011;64381;0.000;0.000;2022-12-19T16:14:08;12.53;;;6.00;;
75772;SDS011;64381;0.000;0.000;2022-12-19T16:16:36;14.00;;;6.00;;
75772;SDS011;64381;0.000;0.000;2022-12-19T16:19:01;16.27;;;6.97;;
75772;SDS011;64381;0.000;0.000;2022-12-19T16:21:27;18.50;;;6.10;;
75772;SDS011;64381;0.000;0.000;2022-12-19T16:23:52;23.07;;;6.60;;
75772;SDS011;64381;0.000;0.000;2022-12-19T16:26:23;15.60;;;6.27;;
75772;SDS011;64381;0.000;0.000;2022-12-19T16:28:56;15.40;;;6.25;;
75772;SDS011;64381;0.000;0.000;2022-12-19T16:31:23;14.13;;;6.40;;
75772;SDS011;64381;0.000;0.000;2022-12-19T16:33:50;14.45;;;5.78;;
75772;SDS011;64381;0.000;0.000;2022-12-19T16:36:15;13.80;;;6.45;;
75772;SDS011;64381;0.000;0.000;2022-12-19T16:38:41;13.00;;;6.23;;
75772;SDS011;64381;0.000;0.000;2022-12-19T16:41:09;13.47;;;5.90;;
75772;SDS011;64381;0.000;0.000;2022-12-19T16:43:39;10.75;;;5.97;;
75772;SDS011;64381;0.000;0.000;2022-12-19T16:46:08;12.80;;;6.07;;
75772;SDS011;64381;0.000;0.000;2022-12-19T16:48:40;12.93;;;6.25;;
75772;SDS011;64381;0.000;0.000;2022-12-19T16:51:06;12.37;;;6.40;;
75772;SDS011;64381;0.000;0.000;2022-12-19T16:53:40;12.43;;;6.28;;
75772;SDS011;64381;0.000;0.000;2022-12-19T16:56:08;11.57;;;6.20;;
75772;SDS011;64381;0.000;0.000;2022-12-19T16:58:55;13.50;;;6.63;;
75772;SDS011;64381;0.000;0.000;2022-12-19T17:01:21;12.70;;;6.63;;
75772;SDS011;64381;0.000;0.000;2022-12-19T17:03:46;11.80;;;6.30;;
75772;SDS011;64381;0.000;0.000;2022-12-19T17:06:15;15.27;;;6.57;;
75772;SDS011;64381;0.000;0.000;2022-12-19T17:08:42;14.05;;;6.80;;
75772;SDS011;64381;0.000;0.000;2022-12-19T17:11:21;13.47;;;6.40;;
75772;SDS011;64381;0.000;0.000;2022-12-19T17:13:49;13.60;;;6.72;;
75772;SDS011;64381;0.000;0.000;2022-12-19T17:16:17;14.90;;;6.45;;
75772;SDS011;64381;0.000;0.000;2022-12-19T17:18:42;13.73;;;6.90;;